Terminal Aerodrome Forecast
Issued by NWS

Home | Current Version | Previous Version | Graphics & Text | Print | Product List | Glossary On
Versions: 1 2 3 4 5 6 7 8 9 10 11 12 13 14 15 16 17 18 19
000
FTUS42 KMHX 241100
TAFOAJ
TAF
KOAJ 241121Z 2412/2512 21009KT 5SM BR VCSH SCT005 BKN015 OVC020
     FM241500 21015G20KT P6SM VCSH SCT007 BKN025
     FM242300 19008KT 5SM BR OVC010
     FM250600 21004KT 3SM BR OVC005
      AMD LTD TO CLD VIS AND WIND=

USA.gov is the U.S. government's official web portal to all federal, state and local government web resources and services.